Airfield :
LOGIN :

Register | Disclaimer

   EN    FR    IT 

 










Legend :    VFR   Marginal VFR   IFR   Intensive IFR   Very Intensive IFR
Visi :
Ceiling :
>= 8 km
>= 3000ft
5 to 8 km
1000 to 3000 ft
1500m to 5 km
500 to 1000 ft
800 to 1500m
200 to 500 ft
< 800m
< 200 ft
Symbols :   Thunderstorms  Fog  Heavy snow  Heavy precipitations  Wind > 20 kt
SIGMETs :     Misc.  Thunderstorms  Icing  Turbulence  Mountain Waves  Volcanic Ashes






- Airport Elevation : 209 ft
- IATA code : CLY


LFKC - Calvi

CURRENT METAR :
  • 110430Z AUTO VRB02KT 5000 -RA BR FEW019/// SCT037/// BKN060/// ///CB 16/15 Q1010 TEMPO 23015G25KT 2000 TSRA BKN010 BKN040CB

EXPIRED METARs :
  • 110400Z AUTO VRB02KT 5000 -RA BR SCT017/// BKN024/// BKN044/// ///TCU 16/16 Q1010 TEMPO 23015G25KT 2000 TSRA BKN010 BKN040CB
  • 110330Z AUTO 34005KT 290V020 6000 -RA FEW005/// BKN022/// BKN030/// ///CB 16/16 Q1011 TEMPO 23015G25KT 2000 TSRA BKN010 BKN040CB
  • 110300Z AUTO 32004KT 270V010 5000 -RA BR FEW004 SCT025 BKN076 16/16 Q1011
  • 110230Z AUTO VRB03KT 7000 -RA FEW005/// SCT027/// BKN094/// ///CB 16/16 Q1012
  • 110200Z AUTO 07003KT 040V110 4100 RA BR SCT038/// BKN046/// BKN056/// ///CB 17/16 Q1012

TAF TAF LFKC
Valid from the 11 at 03:00 until the 12 at 03:00 UTC


110200Z 1103/1203 VRB05KT 9999 BKN040 TX28/1112Z TN15/1104Z
TEMPO 1103/1113 23015G25KT 2000 TSRA BKN010 BKN040CB
BECMG 1113/1115 21012G22KT
TEMPO 1116/1120 4000 TSRA BKN010 FEW040CB
ATIS : +33 4 95 65 82 49



MET'MAP, your aeronautical weather chart ! - Copyright ORBIFLY December 2007 - Disclaimer

ORBIFLY MET'MAP TEAM :

Programming & Development : Alexandra Zaïnal
Concept & original design : Baudouin d'Aumeries
Assistance for programming : Marc-Olivier Méhu
Technical & hardware support : Manuel Goepfert

Contact : metmap@orbifly.com




SOURCES & CREDITS :

   NOAA